sensor_id;sensor_type;location;lat;lon;timestamp;pressure;altitude;pressure_sealevel;temperature;humidity
49515;BME280;35415;47.870;16.058;2023-04-28T00:00:10;97636.34;;;7.17;74.78
49515;BME280;35415;47.870;16.058;2023-04-28T00:02:37;97638.44;;;7.15;74.84
49515;BME280;35415;47.870;16.058;2023-04-28T00:05:05;97640.78;;;7.11;75.16
49515;BME280;35415;47.870;16.058;2023-04-28T00:07:32;97635.66;;;7.10;75.37
49515;BME280;35415;47.870;16.058;2023-04-28T00:10:01;97605.59;;;6.79;75.19
49515;BME280;35415;47.870;16.058;2023-04-28T00:12:28;97572.00;;;6.72;75.67
49515;BME280;35415;47.870;16.058;2023-04-28T00:14:55;97623.69;;;7.01;75.41
49515;BME280;35415;47.870;16.058;2023-04-28T00:17:22;97619.06;;;6.96;76.15
49515;BME280;35415;47.870;16.058;2023-04-28T00:19:49;97592.38;;;6.73;76.13
49515;BME280;35415;47.870;16.058;2023-04-28T00:22:45;97627.56;;;6.93;75.40
49515;BME280;35415;47.870;16.058;2023-04-28T00:25:15;97620.84;;;6.79;76.37
49515;BME280;35415;47.870;16.058;2023-04-28T00:27:42;97541.50;;;6.32;76.30
49515;BME280;35415;47.870;16.058;2023-04-28T00:30:12;97607.81;;;6.71;76.64
49515;BME280;35415;47.870;16.058;2023-04-28T00:32:41;97630.38;;;6.75;77.58
49515;BME280;35415;47.870;16.058;2023-04-28T00:35:08;97631.88;;;6.71;77.43
49515;BME280;35415;47.870;16.058;2023-04-28T00:37:36;97622.69;;;6.67;77.49
49515;BME280;35415;47.870;16.058;2023-04-28T00:40:07;97619.91;;;6.61;78.09
49515;BME280;35415;47.870;16.058;2023-04-28T00:42:36;97625.16;;;6.56;78.09
49515;BME280;35415;47.870;16.058;2023-04-28T00:45:03;97623.16;;;6.52;78.70
49515;BME280;35415;47.870;16.058;2023-04-28T00:47:32;97628.97;;;6.49;78.53
49515;BME280;35415;47.870;16.058;2023-04-28T00:50:00;97611.88;;;6.38;79.02
49515;BME280;35415;47.870;16.058;2023-04-28T00:52:28;97609.09;;;6.33;78.90
49515;BME280;35415;47.870;16.058;2023-04-28T00:54:55;97622.56;;;6.38;79.13
49515;BME280;35415;47.870;16.058;2023-04-28T00:57:23;97616.31;;;6.32;79.92
49515;BME280;35415;47.870;16.058;2023-04-28T00:59:51;97608.28;;;6.21;79.77
49515;BME280;35415;47.870;16.058;2023-04-28T01:02:19;97610.50;;;6.24;80.38
49515;BME280;35415;47.870;16.058;2023-04-28T01:04:46;97613.63;;;6.21;80.38
49515;BME280;35415;47.870;16.058;2023-04-28T01:07:13;97611.06;;;6.14;80.48
49515;BME280;35415;47.870;16.058;2023-04-28T01:09:41;97611.75;;;6.10;81.15
49515;BME280;35415;47.870;16.058;2023-04-28T01:12:08;97615.13;;;6.05;81.48
49515;BME280;35415;47.870;16.058;2023-04-28T01:14:35;97611.50;;;5.99;81.86
49515;BME280;35415;47.870;16.058;2023-04-28T01:17:04;97601.59;;;5.88;82.00
49515;BME280;35415;47.870;16.058;2023-04-28T01:19:32;97614.53;;;5.91;82.17
49515;BME280;35415;47.870;16.058;2023-04-28T01:21:59;97597.38;;;5.81;81.66
49515;BME280;35415;47.870;16.058;2023-04-28T01:24:27;97602.25;;;5.84;82.38
49515;BME280;35415;47.870;16.058;2023-04-28T01:26:54;97609.69;;;5.82;82.87
49515;BME280;35415;47.870;16.058;2023-04-28T01:29:21;97609.56;;;5.77;83.24
49515;BME280;35415;47.870;16.058;2023-04-28T01:31:48;97605.75;;;5.72;83.17
49515;BME280;35415;47.870;16.058;2023-04-28T01:34:15;97600.25;;;5.67;83.66
49515;BME280;35415;47.870;16.058;2023-04-28T01:36:43;97603.16;;;5.66;83.53
49515;BME280;35415;47.870;16.058;2023-04-28T01:39:10;97603.84;;;5.61;84.28
49515;BME280;35415;47.870;16.058;2023-04-28T01:41:39;97596.06;;;5.60;83.88
49515;BME280;35415;47.870;16.058;2023-04-28T01:44:06;97602.91;;;5.56;84.40
49515;BME280;35415;47.870;16.058;2023-04-28T01:46:34;97598.81;;;5.53;84.64
49515;BME280;35415;47.870;16.058;2023-04-28T01:49:01;97599.03;;;5.52;84.34
49515;BME280;35415;47.870;16.058;2023-04-28T01:51:28;97594.38;;;5.47;85.21
49515;BME280;35415;47.870;16.058;2023-04-28T01:53:55;97595.88;;;5.43;85.11
49515;BME280;35415;47.870;16.058;2023-04-28T01:56:22;97596.34;;;5.40;85.46
49515;BME280;35415;47.870;16.058;2023-04-28T01:58:51;97589.59;;;5.37;85.47
49515;BME280;35415;47.870;16.058;2023-04-28T02:01:18;97603.16;;;5.36;85.48
49515;BME280;35415;47.870;16.058;2023-04-28T02:03:45;97591.31;;;5.32;85.72
49515;BME280;35415;47.870;16.058;2023-04-28T02:06:13;97598.50;;;5.31;85.59
49515;BME280;35415;47.870;16.058;2023-04-28T02:08:40;97605.09;;;5.29;86.05
49515;BME280;35415;47.870;16.058;2023-04-28T02:11:07;97594.91;;;5.26;86.50
49515;BME280;35415;47.870;16.058;2023-04-28T02:13:34;97548.13;;;4.93;86.59
49515;BME280;35415;47.870;16.058;2023-04-28T02:16:03;97601.34;;;5.18;86.74
49515;BME280;35415;47.870;16.058;2023-04-28T02:18:30;97568.41;;;4.94;86.77
49515;BME280;35415;47.870;16.058;2023-04-28T02:20:57;97590.06;;;5.16;86.64
49515;BME280;35415;47.870;16.058;2023-04-28T02:23:24;97589.94;;;5.11;86.92
49515;BME280;35415;47.870;16.058;2023-04-28T02:25:59;97592.03;;;5.09;86.81
49515;BME280;35415;47.870;16.058;2023-04-28T02:28:28;97591.91;;;5.04;88.12
49515;BME280;35415;47.870;16.058;2023-04-28T02:31:04;97594.75;;;5.02;87.60
49515;BME280;35415;47.870;16.058;2023-04-28T02:33:31;97591.28;;;5.02;87.28
49515;BME280;35415;47.870;16.058;2023-04-28T02:35:58;97596.03;;;5.00;88.06
49515;BME280;35415;47.870;16.058;2023-04-28T02:38:26;97586.03;;;4.95;88.09
49515;BME280;35415;47.870;16.058;2023-04-28T02:40:59;97558.47;;;4.71;88.25
49515;BME280;35415;47.870;16.058;2023-04-28T02:43:27;97586.94;;;4.89;88.41
49515;BME280;35415;47.870;16.058;2023-04-28T02:45:54;97582.84;;;4.87;88.46
49515;BME280;35415;47.870;16.058;2023-04-28T02:48:23;97564.19;;;4.68;88.68
49515;BME280;35415;47.870;16.058;2023-04-28T02:50:51;97583.53;;;4.82;88.03
49515;BME280;35415;47.870;16.058;2023-04-28T02:53:18;97557.78;;;4.58;88.64
49515;BME280;35415;47.870;16.058;2023-04-28T02:55:46;97569.47;;;4.57;89.18
49515;BME280;35415;47.870;16.058;2023-04-28T02:58:13;97587.16;;;4.69;89.41
49515;BME280;35415;47.870;16.058;2023-04-28T03:00:40;97589.44;;;4.66;89.44
49515;BME280;35415;47.870;16.058;2023-04-28T03:03:07;97569.53;;;4.50;90.12
49515;BME280;35415;47.870;16.058;2023-04-28T03:05:36;97575.41;;;4.59;90.20
49515;BME280;35415;47.870;16.058;2023-04-28T03:08:03;97580.13;;;4.57;90.00
49515;BME280;35415;47.870;16.058;2023-04-28T03:10:30;97570.94;;;4.52;90.31
49515;BME280;35415;47.870;16.058;2023-04-28T03:12:57;97572.19;;;4.50;90.82
49515;BME280;35415;47.870;16.058;2023-04-28T03:15:24;97535.25;;;4.17;90.06
49515;BME280;35415;47.870;16.058;2023-04-28T03:17:52;97562.22;;;4.45;90.69
49515;BME280;35415;47.870;16.058;2023-04-28T03:20:19;97563.47;;;4.43;91.20
49515;BME280;35415;47.870;16.058;2023-04-28T03:22:48;97566.81;;;4.38;91.09
49515;BME280;35415;47.870;16.058;2023-04-28T03:25:15;97567.44;;;4.34;91.84
49515;BME280;35415;47.870;16.058;2023-04-28T03:27:43;97540.19;;;4.13;91.73
49515;BME280;35415;47.870;16.058;2023-04-28T03:30:10;97554.22;;;4.27;91.93
49515;BME280;35415;47.870;16.058;2023-04-28T03:32:38;97537.91;;;4.17;92.17
49515;BME280;35415;47.870;16.058;2023-04-28T03:35:08;97542.19;;;4.18;92.25
49515;BME280;35415;47.870;16.058;2023-04-28T03:37:35;97553.03;;;4.23;92.06
49515;BME280;35415;47.870;16.058;2023-04-28T03:40:06;97502.81;;;3.83;92.49
49515;BME280;35415;47.870;16.058;2023-04-28T03:42:33;97557.81;;;4.14;93.07
49515;BME280;35415;47.870;16.058;2023-04-28T03:45:00;97560.91;;;4.11;93.65
49515;BME280;35415;47.870;16.058;2023-04-28T03:47:27;97570.75;;;4.11;93.22
49515;BME280;35415;47.870;16.058;2023-04-28T03:49:54;97500.53;;;3.62;93.64
49515;BME280;35415;47.870;16.058;2023-04-28T03:52:23;97530.00;;;3.85;93.47
49515;BME280;35415;47.870;16.058;2023-04-28T03:54:50;97560.34;;;4.03;93.63
49515;BME280;35415;47.870;16.058;2023-04-28T03:57:18;97558.72;;;4.02;93.75
49515;BME280;35415;47.870;16.058;2023-04-28T03:59:47;97552.00;;;3.99;93.70
49515;BME280;35415;47.870;16.058;2023-04-28T04:02:14;97555.91;;;3.97;93.94
49515;BME280;35415;47.870;16.058;2023-04-28T04:04:42;97530.66;;;3.81;93.85
49515;BME280;35415;47.870;16.058;2023-04-28T04:07:10;97522.31;;;3.77;94.28
49515;BME280;35415;47.870;16.058;2023-04-28T04:09:39;97541.88;;;3.89;94.22
49515;BME280;35415;47.870;16.058;2023-04-28T04:12:09;97472.34;;;3.36;94.56
49515;BME280;35415;47.870;16.058;2023-04-28T04:14:37;97437.97;;;3.10;94.80
49515;BME280;35415;47.870;16.058;2023-04-28T04:17:04;97426.56;;;3.03;95.04
49515;BME280;35415;47.870;16.058;2023-04-28T04:19:31;97468.06;;;3.28;95.71
49515;BME280;35415;47.870;16.058;2023-04-28T04:21:58;97524.31;;;3.57;95.80
49515;BME280;35415;47.870;16.058;2023-04-28T04:24:27;97479.69;;;3.34;95.54
49515;BME280;35415;47.870;16.058;2023-04-28T04:26:54;97493.03;;;3.27;95.79
49515;BME280;35415;47.870;16.058;2023-04-28T04:29:21;97417.91;;;2.82;96.08
49515;BME280;35415;47.870;16.058;2023-04-28T04:31:49;97463.78;;;3.03;96.40
49515;BME280;35415;47.870;16.058;2023-04-28T04:34:16;97559.56;;;3.77;96.29
49515;BME280;35415;47.870;16.058;2023-04-28T04:36:43;97554.47;;;3.76;96.57
49515;BME280;35415;47.870;16.058;2023-04-28T04:39:11;97550.97;;;3.75;96.72
49515;BME280;35415;47.870;16.058;2023-04-28T04:41:38;97546.69;;;3.74;97.19
49515;BME280;35415;47.870;16.058;2023-04-28T04:44:06;97507.19;;;3.53;96.69
49515;BME280;35415;47.870;16.058;2023-04-28T04:46:34;97541.16;;;3.76;96.85
49515;BME280;35415;47.870;16.058;2023-04-28T04:49:02;97538.50;;;3.76;96.75
49515;BME280;35415;47.870;16.058;2023-04-28T04:51:29;97533.16;;;3.76;97.30
49515;BME280;35415;47.870;16.058;2023-04-28T04:53:56;97500.00;;;3.53;97.26
49515;BME280;35415;47.870;16.058;2023-04-28T04:56:23;97449.75;;;3.20;97.23
49515;BME280;35415;47.870;16.058;2023-04-28T04:58:51;97531.91;;;3.78;97.62
49515;BME280;35415;47.870;16.058;2023-04-28T05:01:18;97508.75;;;3.60;97.71
49515;BME280;35415;47.870;16.058;2023-04-28T05:03:45;97540.06;;;3.83;97.98
49515;BME280;35415;47.870;16.058;2023-04-28T05:06:13;97539.25;;;3.83;97.78
49515;BME280;35415;47.870;16.058;2023-04-28T05:08:41;97537.63;;;3.82;97.72
49515;BME280;35415;47.870;16.058;2023-04-28T05:11:08;97534.31;;;3.86;98.05
49515;BME280;35415;47.870;16.058;2023-04-28T05:13:35;97462.00;;;3.46;98.24
49515;BME280;35415;47.870;16.058;2023-04-28T05:16:04;97456.97;;;3.38;97.72
49515;BME280;35415;47.870;16.058;2023-04-28T05:18:32;97457.47;;;3.53;98.17
49515;BME280;35415;47.870;16.058;2023-04-28T05:20:58;97461.09;;;3.59;98.34
49515;BME280;35415;47.870;16.058;2023-04-28T05:23:27;97525.75;;;4.03;97.91
49515;BME280;35415;47.870;16.058;2023-04-28T05:25:54;97513.66;;;4.07;98.25
49515;BME280;35415;47.870;16.058;2023-04-28T05:28:21;97495.88;;;4.01;98.07
49515;BME280;35415;47.870;16.058;2023-04-28T05:30:48;97477.34;;;3.94;98.53
49515;BME280;35415;47.870;16.058;2023-04-28T05:33:18;97411.63;;;3.51;98.18
49515;BME280;35415;47.870;16.058;2023-04-28T05:35:46;97376.97;;;3.40;98.10
49515;BME280;35415;47.870;16.058;2023-04-28T05:38:14;97358.84;;;3.30;98.11
49515;BME280;35415;47.870;16.058;2023-04-28T05:40:42;97402.94;;;3.62;98.01
49515;BME280;35415;47.870;16.058;2023-04-28T05:43:10;97445.25;;;3.89;98.25
49515;BME280;35415;47.870;16.058;2023-04-28T05:45:37;97348.22;;;3.30;97.94
49515;BME280;35415;47.870;16.058;2023-04-28T05:48:04;97446.81;;;3.97;97.60
49515;BME280;35415;47.870;16.058;2023-04-28T05:50:31;97367.22;;;3.52;97.39
49515;BME280;35415;47.870;16.058;2023-04-28T05:52:58;97391.13;;;3.77;97.58
49515;BME280;35415;47.870;16.058;2023-04-28T05:55:25;97507.22;;;4.51;97.62
49515;BME280;35415;47.870;16.058;2023-04-28T05:57:56;97441.34;;;4.10;97.61
49515;BME280;35415;47.870;16.058;2023-04-28T06:00:24;97525.22;;;4.74;97.97
49515;BME280;35415;47.870;16.058;2023-04-28T06:02:51;97518.16;;;4.79;97.70
49515;BME280;35415;47.870;16.058;2023-04-28T06:05:20;97522.38;;;4.87;97.83
49515;BME280;35415;47.870;16.058;2023-04-28T06:07:47;97524.72;;;4.95;97.66
49515;BME280;35415;47.870;16.058;2023-04-28T06:10:14;97452.63;;;4.60;97.32
49515;BME280;35415;47.870;16.058;2023-04-28T06:12:42;97528.84;;;5.09;97.26
49515;BME280;35415;47.870;16.058;2023-04-28T06:15:10;97490.44;;;4.99;96.51
49515;BME280;35415;47.870;16.058;2023-04-28T06:17:38;97515.34;;;5.23;95.78
49515;BME280;35415;47.870;16.058;2023-04-28T06:20:06;97504.34;;;5.31;95.69
49515;BME280;35415;47.870;16.058;2023-04-28T06:22:35;97466.03;;;5.13;95.79
49515;BME280;35415;47.870;16.058;2023-04-28T06:25:02;97484.84;;;5.30;95.51
49515;BME280;35415;47.870;16.058;2023-04-28T06:27:29;97501.00;;;5.47;95.81
49515;BME280;35415;47.870;16.058;2023-04-28T06:29:57;97482.34;;;5.47;95.62
49515;BME280;35415;47.870;16.058;2023-04-28T06:32:26;97502.44;;;5.61;95.56
49515;BME280;35415;47.870;16.058;2023-04-28T06:34:53;97445.09;;;5.40;94.52
49515;BME280;35415;47.870;16.058;2023-04-28T06:37:21;97408.78;;;5.28;94.45
49515;BME280;35415;47.870;16.058;2023-04-28T06:39:48;97437.91;;;5.53;94.08
49515;BME280;35415;47.870;16.058;2023-04-28T06:42:15;97325.97;;;4.99;93.94
49515;BME280;35415;47.870;16.058;2023-04-28T06:44:43;97431.44;;;5.72;93.34
49515;BME280;35415;47.870;16.058;2023-04-28T06:47:10;97496.56;;;6.29;92.85
49515;BME280;35415;47.870;16.058;2023-04-28T06:49:39;97498.66;;;6.39;92.20
49515;BME280;35415;47.870;16.058;2023-04-28T06:52:08;97478.09;;;6.40;91.68
49515;BME280;35415;47.870;16.058;2023-04-28T06:54:35;97493.16;;;6.57;91.23
49515;BME280;35415;47.870;16.058;2023-04-28T06:57:05;97485.56;;;6.66;90.30
49515;BME280;35415;47.870;16.058;2023-04-28T06:59:32;97461.75;;;6.64;90.96
49515;BME280;35415;47.870;16.058;2023-04-28T07:02:00;97341.81;;;5.99;89.79
49515;BME280;35415;47.870;16.058;2023-04-28T07:04:27;97476.88;;;6.87;89.02
49515;BME280;35415;47.870;16.058;2023-04-28T07:06:56;97474.91;;;6.94;88.56
49515;BME280;35415;47.870;16.058;2023-04-28T07:09:23;97453.75;;;6.93;88.08
49515;BME280;35415;47.870;16.058;2023-04-28T07:11:50;97350.97;;;6.44;88.20
49515;BME280;35415;47.870;16.058;2023-04-28T07:14:17;97387.19;;;6.80;87.50
49515;BME280;35415;47.870;16.058;2023-04-28T07:16:46;97458.84;;;7.40;87.69
49515;BME280;35415;47.870;16.058;2023-04-28T07:19:13;97472.47;;;7.55;87.31
49515;BME280;35415;47.870;16.058;2023-04-28T07:21:40;97325.06;;;6.89;88.92
49515;BME280;35415;47.870;16.058;2023-04-28T07:24:09;97386.66;;;7.45;88.15
49515;BME280;35415;47.870;16.058;2023-04-28T07:26:36;97282.03;;;6.91;87.99
49515;BME280;35415;47.870;16.058;2023-04-28T07:29:03;97407.16;;;7.90;87.61
49515;BME280;35415;47.870;16.058;2023-04-28T07:31:30;97375.16;;;7.83;88.24
49515;BME280;35415;47.870;16.058;2023-04-28T07:33:57;97427.25;;;8.31;87.10
49515;BME280;35415;47.870;16.058;2023-04-28T07:36:24;97428.03;;;8.48;87.69
49515;BME280;35415;47.870;16.058;2023-04-28T07:38:51;97432.25;;;8.66;87.37
49515;BME280;35415;47.870;16.058;2023-04-28T07:41:20;97421.09;;;8.74;87.12
49515;BME280;35415;47.870;16.058;2023-04-28T07:43:48;97365.09;;;8.56;87.42
49515;BME280;35415;47.870;16.058;2023-04-28T07:46:15;97426.56;;;9.11;86.78
49515;BME280;35415;47.870;16.058;2023-04-28T07:48:42;97265.34;;;8.27;86.28
49515;BME280;35415;47.870;16.058;2023-04-28T07:51:09;97419.81;;;9.35;84.25
49515;BME280;35415;47.870;16.058;2023-04-28T07:53:38;97428.28;;;9.54;86.85
49515;BME280;35415;47.870;16.058;2023-04-28T07:56:05;97347.06;;;9.37;87.36
49515;BME280;35415;47.870;16.058;2023-04-28T07:58:33;97421.63;;;9.99;85.68
49515;BME280;35415;47.870;16.058;2023-04-28T08:01:02;97415.28;;;10.20;86.04
49515;BME280;35415;47.870;16.058;2023-04-28T08:03:29;97413.78;;;10.40;86.35
49515;BME280;35415;47.870;16.058;2023-04-28T08:05:58;97410.38;;;10.60;84.29
49515;BME280;35415;47.870;16.058;2023-04-28T08:08:25;97401.56;;;10.79;83.53
49515;BME280;35415;47.870;16.058;2023-04-28T08:10:52;97272.56;;;10.22;84.21
49515;BME280;35415;47.870;16.058;2023-04-28T08:13:23;97224.41;;;10.10;81.02
49515;BME280;35415;47.870;16.058;2023-04-28T08:15:53;97281.53;;;10.68;80.94
49515;BME280;35415;47.870;16.058;2023-04-28T08:18:24;97381.97;;;11.55;79.74
49515;BME280;35415;47.870;16.058;2023-04-28T08:20:51;97317.34;;;11.35;77.35
49515;BME280;35415;47.870;16.058;2023-04-28T08:23:18;97233.66;;;11.01;77.75
49515;BME280;35415;47.870;16.058;2023-04-28T08:25:46;97374.09;;;12.15;76.91
49515;BME280;35415;47.870;16.058;2023-04-28T08:28:14;97228.47;;;11.40;74.93
49515;BME280;35415;47.870;16.058;2023-04-28T08:30:41;97226.25;;;11.62;74.46
49515;BME280;35415;47.870;16.058;2023-04-28T08:33:09;97344.72;;;12.68;74.09
49515;BME280;35415;47.870;16.058;2023-04-28T08:35:36;97350.78;;;12.88;73.73
49515;BME280;35415;47.870;16.058;2023-04-28T08:38:03;97221.13;;;12.25;71.81
49515;BME280;35415;47.870;16.058;2023-04-28T08:40:33;97279.56;;;12.84;71.46
49515;BME280;35415;47.870;16.058;2023-04-28T08:43:00;97224.81;;;12.79;71.26
49515;BME280;35415;47.870;16.058;2023-04-28T08:45:30;97244.47;;;13.18;68.53
49515;BME280;35415;47.870;16.058;2023-04-28T08:48:16;97303.88;;;13.76;68.47
49515;BME280;35415;47.870;16.058;2023-04-28T08:50:48;97209.44;;;13.37;67.91
49515;BME280;35415;47.870;16.058;2023-04-28T08:53:20;97251.47;;;13.72;67.94
49515;BME280;35415;47.870;16.058;2023-04-28T08:55:51;97349.44;;;14.60;67.20
49515;BME280;35415;47.870;16.058;2023-04-28T08:58:21;97174.53;;;13.65;66.78
49515;BME280;35415;47.870;16.058;2023-04-28T09:00:48;97208.34;;;14.05;66.11
49515;BME280;35415;47.870;16.058;2023-04-28T09:03:17;97196.91;;;14.13;65.34
49515;BME280;35415;47.870;16.058;2023-04-28T09:05:45;97324.72;;;15.04;64.92
49515;BME280;35415;47.870;16.058;2023-04-28T09:08:12;97309.97;;;15.10;64.57
49515;BME280;35415;47.870;16.058;2023-04-28T09:10:39;97337.38;;;15.41;64.09
49515;BME280;35415;47.870;16.058;2023-04-28T09:13:06;97274.75;;;15.10;65.01
49515;BME280;35415;47.870;16.058;2023-04-28T09:15:35;97294.91;;;15.37;62.50
49515;BME280;35415;47.870;16.058;2023-04-28T09:18:04;97219.56;;;15.06;62.01
49515;BME280;35415;47.870;16.058;2023-04-28T09:20:34;97235.75;;;15.25;61.12
49515;BME280;35415;47.870;16.058;2023-04-28T09:23:16;97266.28;;;15.63;62.01
49515;BME280;35415;47.870;16.058;2023-04-28T09:26:00;97323.75;;;16.06;62.53
49515;BME280;35415;47.870;16.058;2023-04-28T09:28:28;97314.94;;;16.14;57.89
49515;BME280;35415;47.870;16.058;2023-04-28T09:30:55;97321.13;;;16.29;57.06
49515;BME280;35415;47.870;16.058;2023-04-28T09:33:22;97274.22;;;16.14;59.48
49515;BME280;35415;47.870;16.058;2023-04-28T09:35:51;97297.31;;;16.39;58.39
49515;BME280;35415;47.870;16.058;2023-04-28T09:38:19;97295.19;;;16.50;59.33
49515;BME280;35415;47.870;16.058;2023-04-28T09:40:51;97288.41;;;16.61;59.00
49515;BME280;35415;47.870;16.058;2023-04-28T09:43:23;97296.75;;;16.78;58.20
49515;BME280;35415;47.870;16.058;2023-04-28T09:45:50;97288.84;;;16.91;57.53
49515;BME280;35415;47.870;16.058;2023-04-28T09:48:26;97284.03;;;16.88;58.26
49515;BME280;35415;47.870;16.058;2023-04-28T09:50:58;97272.25;;;16.92;52.94
49515;BME280;35415;47.870;16.058;2023-04-28T09:53:27;97172.94;;;16.41;55.40
49515;BME280;35415;47.870;16.058;2023-04-28T09:55:56;97274.22;;;17.23;54.37
49515;BME280;35415;47.870;16.058;2023-04-28T09:58:25;97160.28;;;16.59;54.23
49515;BME280;35415;47.870;16.058;2023-04-28T10:00:53;97179.75;;;16.75;51.58
49515;BME280;35415;47.870;16.058;2023-04-28T10:03:22;97205.88;;;17.07;54.18
49515;BME280;35415;47.870;16.058;2023-04-28T10:05:50;97228.09;;;17.31;52.72
49515;BME280;35415;47.870;16.058;2023-04-28T10:08:20;97253.47;;;17.58;53.16
49515;BME280;35415;47.870;16.058;2023-04-28T10:10:48;97206.50;;;17.35;53.18
49515;BME280;35415;47.870;16.058;2023-04-28T10:13:18;97200.09;;;17.31;49.93
49515;BME280;35415;47.870;16.058;2023-04-28T10:15:45;97174.16;;;17.25;52.26
49515;BME280;35415;47.870;16.058;2023-04-28T10:18:13;97203.41;;;17.59;52.48
49515;BME280;35415;47.870;16.058;2023-04-28T10:20:43;97249.97;;;17.88;54.79
49515;BME280;35415;47.870;16.058;2023-04-28T10:23:51;97238.81;;;18.07;54.69
49515;BME280;35415;47.870;16.058;2023-04-28T10:26:22;97249.22;;;18.14;51.70
49515;BME280;35415;47.870;16.058;2023-04-28T10:28:53;97237.88;;;18.20;49.95
49515;BME280;35415;47.870;16.058;2023-04-28T10:31:20;97238.69;;;18.29;49.63
49515;BME280;35415;47.870;16.058;2023-04-28T10:33:48;97213.69;;;18.19;49.70
49515;BME280;35415;47.870;16.058;2023-04-28T10:36:47;97236.78;;;18.47;51.62
49515;BME280;35415;47.870;16.058;2023-04-28T10:39:18;97144.63;;;17.89;48.29
49515;BME280;35415;47.870;16.058;2023-04-28T10:41:47;97123.16;;;17.79;49.63
49515;BME280;35415;47.870;16.058;2023-04-28T10:44:42;97237.44;;;18.61;50.72
49515;BME280;35415;47.870;16.058;2023-04-28T10:47:11;97224.31;;;18.55;45.65
49515;BME280;35415;47.870;16.058;2023-04-28T10:50:03;97216.44;;;18.62;49.51
49515;BME280;35415;47.870;16.058;2023-04-28T10:52:50;97215.16;;;18.59;47.56
49515;BME280;35415;47.870;16.058;2023-04-28T10:55:32;97211.66;;;18.59;48.39
49515;BME280;35415;47.870;16.058;2023-04-28T10:58:29;97207.00;;;18.59;48.94
49515;BME280;35415;47.870;16.058;2023-04-28T11:01:25;97163.09;;;18.26;48.85
49515;BME280;35415;47.870;16.058;2023-04-28T11:03:55;97194.50;;;18.32;47.30
49515;BME280;35415;47.870;16.058;2023-04-28T11:06:30;97195.00;;;18.34;46.63
49515;BME280;35415;47.870;16.058;2023-04-28T11:09:01;97170.59;;;18.12;46.85
49515;BME280;35415;47.870;16.058;2023-04-28T11:11:30;97163.56;;;18.02;46.19
49515;BME280;35415;47.870;16.058;2023-04-28T11:14:30;97203.94;;;18.44;48.17
49515;BME280;35415;47.870;16.058;2023-04-28T11:17:01;97085.16;;;17.56;45.76
49515;BME280;35415;47.870;16.058;2023-04-28T11:19:29;97047.88;;;17.31;46.91
49515;BME280;35415;47.870;16.058;2023-04-28T11:22:00;97047.50;;;17.24;45.32
49515;BME280;35415;47.870;16.058;2023-04-28T11:24:32;97173.16;;;18.00;45.92
49515;BME280;35415;47.870;16.058;2023-04-28T11:27:01;97072.34;;;17.39;45.99
49515;BME280;35415;47.870;16.058;2023-04-28T11:29:32;97170.75;;;18.07;46.31
49515;BME280;35415;47.870;16.058;2023-04-28T11:32:00;97165.31;;;18.07;48.18
49515;BME280;35415;47.870;16.058;2023-04-28T11:34:28;97059.66;;;17.26;48.04
49515;BME280;35415;47.870;16.058;2023-04-28T11:36:55;97108.38;;;17.62;48.44
49515;BME280;35415;47.870;16.058;2023-04-28T11:39:26;97172.03;;;18.01;49.66
49515;BME280;35415;47.870;16.058;2023-04-28T11:41:59;97105.53;;;17.67;49.15
49515;BME280;35415;47.870;16.058;2023-04-28T11:44:30;97096.88;;;17.65;49.85
49515;BME280;35415;47.870;16.058;2023-04-28T11:46:59;97059.53;;;17.31;49.10
49515;BME280;35415;47.870;16.058;2023-04-28T11:49:41;97059.22;;;17.41;49.25
49515;BME280;35415;47.870;16.058;2023-04-28T11:52:09;97034.75;;;17.33;49.90
49515;BME280;35415;47.870;16.058;2023-04-28T11:54:37;97115.66;;;17.93;48.90
49515;BME280;35415;47.870;16.058;2023-04-28T11:57:16;97073.06;;;17.71;49.13
49515;BME280;35415;47.870;16.058;2023-04-28T11:59:49;97011.88;;;17.42;48.84
49515;BME280;35415;47.870;16.058;2023-04-28T12:02:24;97148.84;;;18.29;48.75
49515;BME280;35415;47.870;16.058;2023-04-28T12:04:54;96997.81;;;17.32;48.36
49515;BME280;35415;47.870;16.058;2023-04-28T12:07:22;97152.22;;;18.35;48.33
49515;BME280;35415;47.870;16.058;2023-04-28T12:10:10;97030.78;;;17.56;49.02
49515;BME280;35415;47.870;16.058;2023-04-28T12:12:37;97100.31;;;17.88;48.35
49515;BME280;35415;47.870;16.058;2023-04-28T12:15:08;97016.19;;;17.35;47.68
49515;BME280;35415;47.870;16.058;2023-04-28T12:20:35;97040.19;;;17.41;48.22
49515;BME280;35415;47.870;16.058;2023-04-28T12:23:02;97184.06;;;18.26;46.83
49515;BME280;35415;47.870;16.058;2023-04-28T12:25:30;97031.72;;;17.34;48.14
49515;BME280;35415;47.870;16.058;2023-04-28T12:31:04;97043.81;;;17.20;48.13
49515;BME280;35415;47.870;16.058;2023-04-28T12:33:33;97092.69;;;17.51;47.29
49515;BME280;35415;47.870;16.058;2023-04-28T12:36:03;97174.75;;;18.01;48.28
49515;BME280;35415;47.870;16.058;2023-04-28T12:38:30;97135.97;;;17.69;48.30
49515;BME280;35415;47.870;16.058;2023-04-28T12:40:57;97167.69;;;17.83;48.91
49515;BME280;35415;47.870;16.058;2023-04-28T12:43:25;97171.34;;;17.78;49.48
49515;BME280;35415;47.870;16.058;2023-04-28T12:45:53;97170.69;;;17.72;47.42
49515;BME280;35415;47.870;16.058;2023-04-28T12:48:22;97188.28;;;17.75;49.11
49515;BME280;35415;47.870;16.058;2023-04-28T12:50:49;97185.72;;;17.70;47.73
49515;BME280;35415;47.870;16.058;2023-04-28T12:53:17;97170.75;;;17.59;48.86
49515;BME280;35415;47.870;16.058;2023-04-28T12:55:47;97125.69;;;17.18;49.82
49515;BME280;35415;47.870;16.058;2023-04-28T12:58:14;97009.41;;;16.36;48.82
49515;BME280;35415;47.870;16.058;2023-04-28T13:00:42;97118.06;;;16.98;49.99
49515;BME280;35415;47.870;16.058;2023-04-28T13:03:13;97026.50;;;16.45;50.00
49515;BME280;35415;47.870;16.058;2023-04-28T13:05:47;97016.56;;;16.32;50.38
49515;BME280;35415;47.870;16.058;2023-04-28T13:08:17;97071.88;;;16.67;50.61
49515;BME280;35415;47.870;16.058;2023-04-28T13:10:47;97086.66;;;16.61;50.51